sensor_id;sensor_type;location;lat;lon;timestamp;P1;durP1;ratioP1;P2;durP2;ratioP2
18505;SDS011;9382;53.242;10.438;2023-11-19T00:00:04;6.50;;;4.33;;
18505;SDS011;9382;53.242;10.438;2023-11-19T00:02:37;7.60;;;4.70;;
18505;SDS011;9382;53.242;10.438;2023-11-19T00:05:04;6.33;;;4.27;;
18505;SDS011;9382;53.242;10.438;2023-11-19T00:07:35;6.43;;;4.33;;
18505;SDS011;9382;53.242;10.438;2023-11-19T00:10:04;5.57;;;4.20;;
18505;SDS011;9382;53.242;10.438;2023-11-19T00:12:36;5.77;;;4.10;;
18505;SDS011;9382;53.242;10.438;2023-11-19T00:15:08;4.63;;;3.70;;
18505;SDS011;9382;53.242;10.438;2023-11-19T00:17:39;3.97;;;3.43;;
18505;SDS011;9382;53.242;10.438;2023-11-19T00:20:09;4.20;;;3.40;;
18505;SDS011;9382;53.242;10.438;2023-11-19T00:22:38;4.57;;;3.57;;
18505;SDS011;9382;53.242;10.438;2023-11-19T00:25:07;5.97;;;3.97;;
18505;SDS011;9382;53.242;10.438;2023-11-19T00:27:34;6.23;;;3.80;;
18505;SDS011;9382;53.242;10.438;2023-11-19T00:30:06;5.30;;;3.67;;
18505;SDS011;9382;53.242;10.438;2023-11-19T00:32:34;5.20;;;3.70;;
18505;SDS011;9382;53.242;10.438;2023-11-19T00:35:01;6.70;;;3.57;;
18505;SDS011;9382;53.242;10.438;2023-11-19T00:37:28;3.97;;;3.43;;
18505;SDS011;9382;53.242;10.438;2023-11-19T00:39:57;3.47;;;3.03;;
18505;SDS011;9382;53.242;10.438;2023-11-19T00:42:24;4.53;;;3.40;;
18505;SDS011;9382;53.242;10.438;2023-11-19T00:44:51;4.53;;;3.50;;
18505;SDS011;9382;53.242;10.438;2023-11-19T00:47:18;4.30;;;3.17;;
18505;SDS011;9382;53.242;10.438;2023-11-19T00:49:47;4.60;;;2.90;;
18505;SDS011;9382;53.242;10.438;2023-11-19T00:52:15;3.50;;;3.20;;
18505;SDS011;9382;53.242;10.438;2023-11-19T00:54:41;4.57;;;3.30;;
18505;SDS011;9382;53.242;10.438;2023-11-19T00:57:09;4.40;;;3.20;;
18505;SDS011;9382;53.242;10.438;2023-11-19T00:59:36;3.60;;;3.20;;
18505;SDS011;9382;53.242;10.438;2023-11-19T01:02:03;5.73;;;3.20;;
18505;SDS011;9382;53.242;10.438;2023-11-19T01:04:32;3.17;;;2.83;;
18505;SDS011;9382;53.242;10.438;2023-11-19T01:06:59;3.97;;;3.20;;
18505;SDS011;9382;53.242;10.438;2023-11-19T01:09:28;3.40;;;3.10;;
18505;SDS011;9382;53.242;10.438;2023-11-19T01:11:59;3.37;;;2.90;;
18505;SDS011;9382;53.242;10.438;2023-11-19T01:14:28;3.03;;;2.70;;
18505;SDS011;9382;53.242;10.438;2023-11-19T01:16:57;3.00;;;2.80;;
18505;SDS011;9382;53.242;10.438;2023-11-19T01:19:24;3.10;;;2.80;;
18505;SDS011;9382;53.242;10.438;2023-11-19T01:21:51;3.37;;;3.03;;
18505;SDS011;9382;53.242;10.438;2023-11-19T01:24:18;3.00;;;2.67;;
18505;SDS011;9382;53.242;10.438;2023-11-19T01:26:45;2.83;;;2.50;;
18505;SDS011;9382;53.242;10.438;2023-11-19T01:29:12;3.07;;;2.63;;
18505;SDS011;9382;53.242;10.438;2023-11-19T01:31:41;3.17;;;2.57;;
18505;SDS011;9382;53.242;10.438;2023-11-19T01:34:07;2.53;;;2.20;;
18505;SDS011;9382;53.242;10.438;2023-11-19T01:36:35;2.30;;;2.10;;
18505;SDS011;9382;53.242;10.438;2023-11-19T01:39:05;3.17;;;2.80;;
18505;SDS011;9382;53.242;10.438;2023-11-19T01:41:33;3.07;;;2.70;;
18505;SDS011;9382;53.242;10.438;2023-11-19T01:44:01;3.63;;;2.90;;
18505;SDS011;9382;53.242;10.438;2023-11-19T01:46:28;5.30;;;2.83;;
18505;SDS011;9382;53.242;10.438;2023-11-19T01:48:59;3.33;;;3.03;;
18505;SDS011;9382;53.242;10.438;2023-11-19T01:51:26;4.60;;;3.13;;
18505;SDS011;9382;53.242;10.438;2023-11-19T01:53:53;3.90;;;3.50;;
18505;SDS011;9382;53.242;10.438;2023-11-19T01:56:21;5.27;;;3.77;;
18505;SDS011;9382;53.242;10.438;2023-11-19T01:58:49;4.67;;;3.40;;
18505;SDS011;9382;53.242;10.438;2023-11-19T02:01:16;5.47;;;4.03;;
18505;SDS011;9382;53.242;10.438;2023-11-19T02:03:43;7.10;;;3.90;;
18505;SDS011;9382;53.242;10.438;2023-11-19T02:06:11;5.90;;;3.60;;
18505;SDS011;9382;53.242;10.438;2023-11-19T02:08:42;4.13;;;3.67;;
18505;SDS011;9382;53.242;10.438;2023-11-19T02:11:09;6.80;;;4.37;;
18505;SDS011;9382;53.242;10.438;2023-11-19T02:13:37;5.43;;;4.30;;
18505;SDS011;9382;53.242;10.438;2023-11-19T02:16:06;5.47;;;4.47;;
18505;SDS011;9382;53.242;10.438;2023-11-19T02:18:37;4.97;;;3.90;;
18505;SDS011;9382;53.242;10.438;2023-11-19T02:21:04;5.70;;;3.93;;
18505;SDS011;9382;53.242;10.438;2023-11-19T02:23:36;5.13;;;3.80;;
18505;SDS011;9382;53.242;10.438;2023-11-19T02:26:05;4.63;;;3.93;;
18505;SDS011;9382;53.242;10.438;2023-11-19T02:28:40;5.33;;;4.00;;
18505;SDS011;9382;53.242;10.438;2023-11-19T02:31:08;4.90;;;3.77;;
18505;SDS011;9382;53.242;10.438;2023-11-19T02:33:35;4.73;;;4.00;;
18505;SDS011;9382;53.242;10.438;2023-11-19T02:36:03;6.30;;;4.93;;
18505;SDS011;9382;53.242;10.438;2023-11-19T02:38:33;6.23;;;4.60;;
18505;SDS011;9382;53.242;10.438;2023-11-19T02:41:02;5.17;;;4.20;;
18505;SDS011;9382;53.242;10.438;2023-11-19T02:43:31;5.87;;;4.70;;
18505;SDS011;9382;53.242;10.438;2023-11-19T02:46:02;5.73;;;4.53;;
18505;SDS011;9382;53.242;10.438;2023-11-19T02:48:31;7.00;;;4.80;;
18505;SDS011;9382;53.242;10.438;2023-11-19T02:51:05;5.70;;;4.50;;
18505;SDS011;9382;53.242;10.438;2023-11-19T02:53:36;5.50;;;4.17;;
18505;SDS011;9382;53.242;10.438;2023-11-19T02:56:04;6.07;;;4.13;;
18505;SDS011;9382;53.242;10.438;2023-11-19T02:58:42;4.50;;;3.77;;
18505;SDS011;9382;53.242;10.438;2023-11-19T03:01:11;4.73;;;3.90;;
18505;SDS011;9382;53.242;10.438;2023-11-19T03:03:48;4.57;;;3.67;;
18505;SDS011;9382;53.242;10.438;2023-11-19T03:06:19;4.97;;;3.50;;
18505;SDS011;9382;53.242;10.438;2023-11-19T03:08:46;3.90;;;3.50;;
18505;SDS011;9382;53.242;10.438;2023-11-19T03:11:14;4.57;;;3.90;;
18505;SDS011;9382;53.242;10.438;2023-11-19T03:13:40;3.87;;;3.13;;
18505;SDS011;9382;53.242;10.438;2023-11-19T03:16:13;3.47;;;3.17;;
18505;SDS011;9382;53.242;10.438;2023-11-19T03:18:39;3.77;;;3.30;;
18505;SDS011;9382;53.242;10.438;2023-11-19T03:21:09;3.53;;;3.00;;
18505;SDS011;9382;53.242;10.438;2023-11-19T03:23:37;3.67;;;3.37;;
18505;SDS011;9382;53.242;10.438;2023-11-19T03:26:05;3.40;;;3.10;;
18505;SDS011;9382;53.242;10.438;2023-11-19T03:28:33;3.30;;;3.00;;
18505;SDS011;9382;53.242;10.438;2023-11-19T03:31:04;3.30;;;3.00;;
18505;SDS011;9382;53.242;10.438;2023-11-19T03:33:34;5.13;;;3.53;;
18505;SDS011;9382;53.242;10.438;2023-11-19T03:36:02;3.23;;;2.87;;
18505;SDS011;9382;53.242;10.438;2023-11-19T03:38:30;3.30;;;3.00;;
18505;SDS011;9382;53.242;10.438;2023-11-19T03:40:59;3.20;;;2.90;;
18505;SDS011;9382;53.242;10.438;2023-11-19T03:43:26;3.20;;;2.83;;
18505;SDS011;9382;53.242;10.438;2023-11-19T03:45:54;3.30;;;3.00;;
18505;SDS011;9382;53.242;10.438;2023-11-19T03:48:30;3.40;;;2.70;;
18505;SDS011;9382;53.242;10.438;2023-11-19T03:50:58;2.87;;;2.67;;
18505;SDS011;9382;53.242;10.438;2023-11-19T03:53:25;3.27;;;2.93;;
18505;SDS011;9382;53.242;10.438;2023-11-19T03:55:52;2.73;;;2.53;;
18505;SDS011;9382;53.242;10.438;2023-11-19T03:58:18;2.80;;;2.60;;
18505;SDS011;9382;53.242;10.438;2023-11-19T04:00:45;2.23;;;2.13;;
18505;SDS011;9382;53.242;10.438;2023-11-19T04:03:12;2.30;;;2.10;;
18505;SDS011;9382;53.242;10.438;2023-11-19T04:05:39;2.67;;;2.30;;
18505;SDS011;9382;53.242;10.438;2023-11-19T04:08:07;2.50;;;2.30;;
18505;SDS011;9382;53.242;10.438;2023-11-19T04:10:34;2.10;;;2.00;;
18505;SDS011;9382;53.242;10.438;2023-11-19T04:13:01;2.17;;;2.03;;
18505;SDS011;9382;53.242;10.438;2023-11-19T04:15:28;2.33;;;2.10;;
18505;SDS011;9382;53.242;10.438;2023-11-19T04:17:55;2.20;;;2.10;;
18505;SDS011;9382;53.242;10.438;2023-11-19T04:20:21;2.30;;;2.10;;
18505;SDS011;9382;53.242;10.438;2023-11-19T04:22:49;2.63;;;2.40;;
18505;SDS011;9382;53.242;10.438;2023-11-19T04:25:17;2.27;;;2.10;;
18505;SDS011;9382;53.242;10.438;2023-11-19T04:27:44;2.00;;;1.90;;
18505;SDS011;9382;53.242;10.438;2023-11-19T04:30:13;5.20;;;2.40;;
18505;SDS011;9382;53.242;10.438;2023-11-19T04:32:43;2.37;;;2.27;;
18505;SDS011;9382;53.242;10.438;2023-11-19T04:35:10;2.60;;;2.40;;
18505;SDS011;9382;53.242;10.438;2023-11-19T04:37:36;3.30;;;2.40;;
18505;SDS011;9382;53.242;10.438;2023-11-19T04:40:04;3.10;;;2.90;;
18505;SDS011;9382;53.242;10.438;2023-11-19T04:42:33;3.10;;;2.80;;
18505;SDS011;9382;53.242;10.438;2023-11-19T04:45:00;3.77;;;3.00;;
18505;SDS011;9382;53.242;10.438;2023-11-19T04:47:26;3.37;;;3.00;;
18505;SDS011;9382;53.242;10.438;2023-11-19T04:49:53;3.60;;;3.30;;
18505;SDS011;9382;53.242;10.438;2023-11-19T04:52:20;3.80;;;3.50;;
18505;SDS011;9382;53.242;10.438;2023-11-19T04:54:47;3.83;;;3.47;;
18505;SDS011;9382;53.242;10.438;2023-11-19T04:57:14;3.77;;;3.40;;
18505;SDS011;9382;53.242;10.438;2023-11-19T04:59:42;4.53;;;3.73;;
18505;SDS011;9382;53.242;10.438;2023-11-19T05:02:10;4.57;;;3.90;;
18505;SDS011;9382;53.242;10.438;2023-11-19T05:04:41;5.03;;;4.20;;
18505;SDS011;9382;53.242;10.438;2023-11-19T05:07:12;4.47;;;4.03;;
18505;SDS011;9382;53.242;10.438;2023-11-19T05:09:38;5.63;;;4.57;;
18505;SDS011;9382;53.242;10.438;2023-11-19T05:12:05;5.20;;;4.50;;
18505;SDS011;9382;53.242;10.438;2023-11-19T05:14:35;5.60;;;4.40;;
18505;SDS011;9382;53.242;10.438;2023-11-19T05:17:03;8.17;;;5.47;;
18505;SDS011;9382;53.242;10.438;2023-11-19T05:19:30;7.97;;;5.63;;
18505;SDS011;9382;53.242;10.438;2023-11-19T05:21:57;7.10;;;5.53;;
18505;SDS011;9382;53.242;10.438;2023-11-19T05:24:23;7.83;;;5.30;;
18505;SDS011;9382;53.242;10.438;2023-11-19T05:26:51;8.70;;;5.53;;
18505;SDS011;9382;53.242;10.438;2023-11-19T05:29:18;7.33;;;5.10;;
18505;SDS011;9382;53.242;10.438;2023-11-19T05:31:45;8.47;;;5.63;;
18505;SDS011;9382;53.242;10.438;2023-11-19T05:34:14;8.90;;;5.83;;
18505;SDS011;9382;53.242;10.438;2023-11-19T05:36:41;7.67;;;5.40;;
18505;SDS011;9382;53.242;10.438;2023-11-19T05:39:08;9.30;;;5.80;;
18505;SDS011;9382;53.242;10.438;2023-11-19T05:41:36;13.67;;;6.87;;
18505;SDS011;9382;53.242;10.438;2023-11-19T05:44:03;10.57;;;6.23;;
18505;SDS011;9382;53.242;10.438;2023-11-19T05:46:31;12.40;;;6.40;;
18505;SDS011;9382;53.242;10.438;2023-11-19T05:48:58;10.17;;;6.60;;
18505;SDS011;9382;53.242;10.438;2023-11-19T05:51:26;13.00;;;6.67;;
18505;SDS011;9382;53.242;10.438;2023-11-19T05:53:53;11.33;;;6.67;;
18505;SDS011;9382;53.242;10.438;2023-11-19T05:56:21;11.73;;;6.90;;
18505;SDS011;9382;53.242;10.438;2023-11-19T05:58:47;11.03;;;6.60;;
18505;SDS011;9382;53.242;10.438;2023-11-19T06:01:15;11.40;;;6.53;;
18505;SDS011;9382;53.242;10.438;2023-11-19T06:03:42;13.63;;;7.20;;
18505;SDS011;9382;53.242;10.438;2023-11-19T06:06:12;13.10;;;7.30;;
18505;SDS011;9382;53.242;10.438;2023-11-19T06:08:40;13.87;;;7.60;;
18505;SDS011;9382;53.242;10.438;2023-11-19T06:11:07;10.27;;;6.90;;
18505;SDS011;9382;53.242;10.438;2023-11-19T06:13:39;13.83;;;7.37;;
18505;SDS011;9382;53.242;10.438;2023-11-19T06:16:08;13.43;;;7.73;;
18505;SDS011;9382;53.242;10.438;2023-11-19T06:18:35;14.90;;;7.83;;
18505;SDS011;9382;53.242;10.438;2023-11-19T06:21:02;14.33;;;8.00;;
18505;SDS011;9382;53.242;10.438;2023-11-19T06:23:29;17.60;;;8.77;;
18505;SDS011;9382;53.242;10.438;2023-11-19T06:25:58;14.40;;;7.83;;
18505;SDS011;9382;53.242;10.438;2023-11-19T06:28:24;14.07;;;8.53;;
18505;SDS011;9382;53.242;10.438;2023-11-19T06:30:51;18.53;;;8.27;;
18505;SDS011;9382;53.242;10.438;2023-11-19T06:33:18;16.13;;;8.37;;
18505;SDS011;9382;53.242;10.438;2023-11-19T06:35:45;14.10;;;8.50;;
18505;SDS011;9382;53.242;10.438;2023-11-19T06:38:11;18.40;;;8.73;;
18505;SDS011;9382;53.242;10.438;2023-11-19T06:40:38;20.47;;;9.13;;
18505;SDS011;9382;53.242;10.438;2023-11-19T06:43:07;18.50;;;9.00;;
18505;SDS011;9382;53.242;10.438;2023-11-19T06:45:34;18.47;;;8.90;;
18505;SDS011;9382;53.242;10.438;2023-11-19T06:48:01;15.03;;;8.70;;
18505;SDS011;9382;53.242;10.438;2023-11-19T06:50:29;17.90;;;8.40;;
18505;SDS011;9382;53.242;10.438;2023-11-19T06:52:56;22.73;;;9.17;;
18505;SDS011;9382;53.242;10.438;2023-11-19T06:55:23;23.87;;;9.50;;
18505;SDS011;9382;53.242;10.438;2023-11-19T06:57:52;22.63;;;9.80;;
18505;SDS011;9382;53.242;10.438;2023-11-19T07:00:20;21.87;;;9.43;;
18505;SDS011;9382;53.242;10.438;2023-11-19T07:02:47;22.53;;;8.97;;
18505;SDS011;9382;53.242;10.438;2023-11-19T07:05:14;19.70;;;9.10;;
18505;SDS011;9382;53.242;10.438;2023-11-19T07:07:41;26.37;;;9.63;;
18505;SDS011;9382;53.242;10.438;2023-11-19T07:10:08;19.67;;;9.10;;
18505;SDS011;9382;53.242;10.438;2023-11-19T07:12:35;27.03;;;8.90;;
18505;SDS011;9382;53.242;10.438;2023-11-19T07:15:02;20.33;;;7.97;;
18505;SDS011;9382;53.242;10.438;2023-11-19T07:17:31;20.43;;;9.33;;
18505;SDS011;9382;53.242;10.438;2023-11-19T07:19:58;20.97;;;8.43;;
18505;SDS011;9382;53.242;10.438;2023-11-19T07:22:25;20.73;;;8.50;;
18505;SDS011;9382;53.242;10.438;2023-11-19T07:24:52;21.00;;;8.73;;
18505;SDS011;9382;53.242;10.438;2023-11-19T07:27:19;25.47;;;8.00;;
18505;SDS011;9382;53.242;10.438;2023-11-19T07:29:45;25.13;;;9.07;;
18505;SDS011;9382;53.242;10.438;2023-11-19T07:32:13;22.87;;;8.73;;
18505;SDS011;9382;53.242;10.438;2023-11-19T07:34:41;20.47;;;8.20;;
18505;SDS011;9382;53.242;10.438;2023-11-19T07:37:07;18.10;;;7.47;;
18505;SDS011;9382;53.242;10.438;2023-11-19T07:39:34;21.60;;;8.27;;
18505;SDS011;9382;53.242;10.438;2023-11-19T07:42:03;22.17;;;7.87;;
18505;SDS011;9382;53.242;10.438;2023-11-19T07:44:30;26.00;;;7.87;;
18505;SDS011;9382;53.242;10.438;2023-11-19T07:46:58;16.43;;;7.03;;
18505;SDS011;9382;53.242;10.438;2023-11-19T07:49:25;13.33;;;6.23;;
18505;SDS011;9382;53.242;10.438;2023-11-19T07:51:56;18.33;;;6.13;;
18505;SDS011;9382;53.242;10.438;2023-11-19T07:54:23;19.87;;;5.80;;
18505;SDS011;9382;53.242;10.438;2023-11-19T07:56:50;16.47;;;6.07;;
18505;SDS011;9382;53.242;10.438;2023-11-19T07:59:16;12.87;;;4.80;;
18505;SDS011;9382;53.242;10.438;2023-11-19T08:01:43;13.17;;;5.10;;
18505;SDS011;9382;53.242;10.438;2023-11-19T08:04:11;13.57;;;4.90;;
18505;SDS011;9382;53.242;10.438;2023-11-19T08:06:38;18.97;;;4.73;;
18505;SDS011;9382;53.242;10.438;2023-11-19T08:09:07;18.07;;;5.20;;
18505;SDS011;9382;53.242;10.438;2023-11-19T08:11:38;17.77;;;4.43;;
18505;SDS011;9382;53.242;10.438;2023-11-19T08:14:05;13.77;;;4.00;;
18505;SDS011;9382;53.242;10.438;2023-11-19T08:16:32;16.50;;;4.47;;
18505;SDS011;9382;53.242;10.438;2023-11-19T08:18:59;15.30;;;5.10;;
18505;SDS011;9382;53.242;10.438;2023-11-19T08:21:28;17.47;;;5.23;;
18505;SDS011;9382;53.242;10.438;2023-11-19T08:23:57;19.33;;;4.83;;
18505;SDS011;9382;53.242;10.438;2023-11-19T08:26:25;16.07;;;4.73;;
18505;SDS011;9382;53.242;10.438;2023-11-19T08:28:54;8.57;;;3.57;;
18505;SDS011;9382;53.242;10.438;2023-11-19T08:31:24;18.80;;;4.37;;
18505;SDS011;9382;53.242;10.438;2023-11-19T08:33:51;14.17;;;4.03;;
18505;SDS011;9382;53.242;10.438;2023-11-19T08:36:18;12.57;;;4.20;;
18505;SDS011;9382;53.242;10.438;2023-11-19T08:38:47;15.87;;;4.30;;
18505;SDS011;9382;53.242;10.438;2023-11-19T08:41:14;15.00;;;4.30;;
18505;SDS011;9382;53.242;10.438;2023-11-19T08:43:47;18.40;;;4.00;;
18505;SDS011;9382;53.242;10.438;2023-11-19T08:46:16;15.77;;;4.20;;
18505;SDS011;9382;53.242;10.438;2023-11-19T08:48:43;18.23;;;4.33;;
18505;SDS011;9382;53.242;10.438;2023-11-19T08:51:14;15.23;;;4.23;;
18505;SDS011;9382;53.242;10.438;2023-11-19T08:53:44;17.50;;;4.63;;
18505;SDS011;9382;53.242;10.438;2023-11-19T08:56:15;11.97;;;3.97;;
18505;SDS011;9382;53.242;10.438;2023-11-19T09:01:36;21.30;;;4.43;;
18505;SDS011;9382;53.242;10.438;2023-11-19T09:04:03;18.40;;;4.77;;
18505;SDS011;9382;53.242;10.438;2023-11-19T09:06:32;23.93;;;4.40;;
18505;SDS011;9382;53.242;10.438;2023-11-19T09:08:59;16.70;;;4.80;;
18505;SDS011;9382;53.242;10.438;2023-11-19T09:11:27;16.77;;;4.43;;
18505;SDS011;9382;53.242;10.438;2023-11-19T09:13:55;18.27;;;4.30;;
18505;SDS011;9382;53.242;10.438;2023-11-19T09:16:45;15.37;;;4.43;;
18505;SDS011;9382;53.242;10.438;2023-11-19T09:19:13;16.67;;;4.07;;
18505;SDS011;9382;53.242;10.438;2023-11-19T09:21:39;14.30;;;4.03;;
18505;SDS011;9382;53.242;10.438;2023-11-19T09:24:06;18.77;;;4.80;;
18505;SDS011;9382;53.242;10.438;2023-11-19T09:26:33;21.07;;;4.37;;
18505;SDS011;9382;53.242;10.438;2023-11-19T09:29:01;16.10;;;4.53;;
18505;SDS011;9382;53.242;10.438;2023-11-19T09:31:29;22.83;;;4.13;;
18505;SDS011;9382;53.242;10.438;2023-11-19T09:33:57;18.27;;;4.50;;
18505;SDS011;9382;53.242;10.438;2023-11-19T09:36:26;21.93;;;4.20;;
18505;SDS011;9382;53.242;10.438;2023-11-19T09:38:53;17.67;;;4.17;;
18505;SDS011;9382;53.242;10.438;2023-11-19T09:41:20;22.27;;;4.07;;
18505;SDS011;9382;53.242;10.438;2023-11-19T09:43:48;14.13;;;4.07;;
18505;SDS011;9382;53.242;10.438;2023-11-19T09:46:18;23.77;;;4.27;;
18505;SDS011;9382;53.242;10.438;2023-11-19T09:48:49;23.50;;;4.60;;
18505;SDS011;9382;53.242;10.438;2023-11-19T09:51:21;16.30;;;4.17;;
18505;SDS011;9382;53.242;10.438;2023-11-19T09:53:51;18.50;;;4.40;;
18505;SDS011;9382;53.242;10.438;2023-11-19T09:56:27;30.63;;;4.70;;
18505;SDS011;9382;53.242;10.438;2023-11-19T09:58:57;21.87;;;4.60;;
18505;SDS011;9382;53.242;10.438;2023-11-19T10:01:25;17.53;;;4.97;;
18505;SDS011;9382;53.242;10.438;2023-11-19T10:03:52;19.07;;;4.30;;
18505;SDS011;9382;53.242;10.438;2023-11-19T10:06:25;19.03;;;4.50;;
18505;SDS011;9382;53.242;10.438;2023-11-19T10:08:53;24.27;;;5.33;;
18505;SDS011;9382;53.242;10.438;2023-11-19T10:11:27;18.17;;;4.37;;
18505;SDS011;9382;53.242;10.438;2023-11-19T10:14:00;20.40;;;4.63;;
18505;SDS011;9382;53.242;10.438;2023-11-19T10:16:30;25.27;;;5.23;;
18505;SDS011;9382;53.242;10.438;2023-11-19T10:19:02;16.60;;;3.93;;
18505;SDS011;9382;53.242;10.438;2023-11-19T10:21:30;25.40;;;5.40;;
18505;SDS011;9382;53.242;10.438;2023-11-19T10:24:00;20.57;;;4.73;;
18505;SDS011;9382;53.242;10.438;2023-11-19T10:26:36;24.90;;;5.20;;
18505;SDS011;9382;53.242;10.438;2023-11-19T10:29:03;21.93;;;4.77;;
18505;SDS011;9382;53.242;10.438;2023-11-19T10:31:34;17.37;;;4.70;;
18505;SDS011;9382;53.242;10.438;2023-11-19T10:34:02;16.93;;;4.30;;
18505;SDS011;9382;53.242;10.438;2023-11-19T10:36:39;23.97;;;5.10;;
18505;SDS011;9382;53.242;10.438;2023-11-19T10:39:07;16.93;;;4.27;;
18505;SDS011;9382;53.242;10.438;2023-11-19T10:41:36;22.80;;;4.17;;
18505;SDS011;9382;53.242;10.438;2023-11-19T10:44:03;21.57;;;4.67;;
18505;SDS011;9382;53.242;10.438;2023-11-19T10:46:37;18.03;;;4.23;;
18505;SDS011;9382;53.242;10.438;2023-11-19T10:49:05;17.30;;;4.47;;
18505;SDS011;9382;53.242;10.438;2023-11-19T10:51:32;21.27;;;4.57;;
18505;SDS011;9382;53.242;10.438;2023-11-19T10:54:07;18.57;;;4.57;;
18505;SDS011;9382;53.242;10.438;2023-11-19T10:56:35;17.93;;;4.17;;
18505;SDS011;9382;53.242;10.438;2023-11-19T10:59:02;18.10;;;4.00;;
18505;SDS011;9382;53.242;10.438;2023-11-19T11:01:32;20.77;;;4.07;;
18505;SDS011;9382;53.242;10.438;2023-11-19T11:04:06;17.30;;;4.80;;
18505;SDS011;9382;53.242;10.438;2023-11-19T11:06:39;16.80;;;3.77;;
18505;SDS011;9382;53.242;10.438;2023-11-19T11:09:07;22.17;;;4.03;;
18505;SDS011;9382;53.242;10.438;2023-11-19T11:11:38;24.27;;;4.33;;
18505;SDS011;9382;53.242;10.438;2023-11-19T11:14:08;19.90;;;4.10;;
18505;SDS011;9382;53.242;10.438;2023-11-19T11:16:38;22.00;;;4.10;;
18505;SDS011;9382;53.242;10.438;2023-11-19T11:19:10;26.77;;;4.20;;
18505;SDS011;9382;53.242;10.438;2023-11-19T11:21:37;22.70;;;4.80;;
18505;SDS011;9382;53.242;10.438;2023-11-19T11:27:06;22.83;;;3.97;;
18505;SDS011;9382;53.242;10.438;2023-11-19T11:30:17;22.93;;;4.87;;
18505;SDS011;9382;53.242;10.438;2023-11-19T11:32:54;18.17;;;4.17;;
18505;SDS011;9382;53.242;10.438;2023-11-19T11:35:37;16.93;;;4.50;;
18505;SDS011;9382;53.242;10.438;2023-11-19T11:38:22;19.67;;;4.27;;
18505;SDS011;9382;53.242;10.438;2023-11-19T11:43:49;13.47;;;4.07;;
18505;SDS011;9382;53.242;10.438;2023-11-19T11:49:24;15.60;;;3.87;;
18505;SDS011;9382;53.242;10.438;2023-11-19T11:51:59;18.60;;;4.10;;
18505;SDS011;9382;53.242;10.438;2023-11-19T11:57:26;20.97;;;4.13;;
18505;SDS011;9382;53.242;10.438;2023-11-19T12:00:04;11.23;;;3.00;;
18505;SDS011;9382;53.242;10.438;2023-11-19T12:02:47;15.40;;;3.70;;
18505;SDS011;9382;53.242;10.438;2023-11-19T12:05:17;15.00;;;3.37;;
18505;SDS011;9382;53.242;10.438;2023-11-19T12:07:54;17.40;;;3.53;;
18505;SDS011;9382;53.242;10.438;2023-11-19T12:10:26;13.17;;;3.50;;
18505;SDS011;9382;53.242;10.438;2023-11-19T12:13:00;12.67;;;3.40;;
18505;SDS011;9382;53.242;10.438;2023-11-19T12:15:28;15.97;;;3.13;;
18505;SDS011;9382;53.242;10.438;2023-11-19T12:17:54;16.53;;;4.03;;
18505;SDS011;9382;53.242;10.438;2023-11-19T12:20:22;14.10;;;3.63;;
18505;SDS011;9382;53.242;10.438;2023-11-19T12:22:49;13.17;;;3.47;;
18505;SDS011;9382;53.242;10.438;2023-11-19T12:25:19;9.50;;;2.97;;
18505;SDS011;9382;53.242;10.438;2023-11-19T12:27:47;16.13;;;3.97;;
18505;SDS011;9382;53.242;10.438;2023-11-19T12:30:24;13.53;;;3.50;;
18505;SDS011;9382;53.242;10.438;2023-11-19T12:32:52;13.90;;;4.23;;
18505;SDS011;9382;53.242;10.438;2023-11-19T12:35:20;13.43;;;3.43;;
18505;SDS011;9382;53.242;10.438;2023-11-19T12:37:47;14.67;;;3.63;;
18505;SDS011;9382;53.242;10.438;2023-11-19T12:40:16;12.67;;;3.50;;
18505;SDS011;9382;53.242;10.438;2023-11-19T12:42:53;14.90;;;3.87;;
18505;SDS011;9382;53.242;10.438;2023-11-19T12:45:22;15.97;;;3.70;;
18505;SDS011;9382;53.242;10.438;2023-11-19T12:47:49;13.90;;;3.67;;
18505;SDS011;9382;53.242;10.438;2023-11-19T12:50:51;13.23;;;3.40;;
18505;SDS011;9382;53.242;10.438;2023-11-19T12:53:19;12.50;;;3.33;;
18505;SDS011;9382;53.242;10.438;2023-11-19T12:55:45;11.77;;;3.90;;
18505;SDS011;9382;53.242;10.438;2023-11-19T12:58:27;18.73;;;3.83;;
18505;SDS011;9382;53.242;10.438;2023-11-19T13:01:03;10.80;;;3.30;;
18505;SDS011;9382;53.242;10.438;2023-11-19T13:03:34;18.87;;;4.50;;
18505;SDS011;9382;53.242;10.438;2023-11-19T13:06:13;17.50;;;3.37;;
18505;SDS011;9382;53.242;10.438;2023-11-19T13:08:56;18.33;;;4.30;;
18505;SDS011;9382;53.242;10.438;2023-11-19T13:11:54;16.80;;;3.90;;
18505;SDS011;9382;53.242;10.438;2023-11-19T13:14:35;26.73;;;5.10;;
18505;SDS011;9382;53.242;10.438;2023-11-19T13:17:05;17.83;;;4.03;;
18505;SDS011;9382;53.242;10.438;2023-11-19T13:19:32;14.30;;;3.57;;
18505;SDS011;9382;53.242;10.438;2023-11-19T13:21:59;10.93;;;3.00;;
18505;SDS011;9382;53.242;10.438;2023-11-19T13:24:26;16.47;;;3.77;;
18505;SDS011;9382;53.242;10.438;2023-11-19T13:26:53;16.10;;;3.97;;
18505;SDS011;9382;53.242;10.438;2023-11-19T13:29:21;15.23;;;3.63;;
18505;SDS011;9382;53.242;10.438;2023-11-19T13:31:53;17.30;;;4.77;;
18505;SDS011;9382;53.242;10.438;2023-11-19T13:34:21;18.03;;;3.40;;
18505;SDS011;9382;53.242;10.438;2023-11-19T13:36:48;15.17;;;3.60;;
18505;SDS011;9382;53.242;10.438;2023-11-19T13:39:20;17.80;;;4.13;;
18505;SDS011;9382;53.242;10.438;2023-11-19T13:41:48;18.67;;;4.90;;
18505;SDS011;9382;53.242;10.438;2023-11-19T13:44:18;19.33;;;3.87;;
18505;SDS011;9382;53.242;10.438;2023-11-19T13:46:45;14.27;;;4.17;;
18505;SDS011;9382;53.242;10.438;2023-11-19T13:49:12;17.07;;;4.17;;
18505;SDS011;9382;53.242;10.438;2023-11-19T13:51:40;23.83;;;4.23;;
18505;SDS011;9382;53.242;10.438;2023-11-19T13:54:07;12.70;;;3.93;;
18505;SDS011;9382;53.242;10.438;2023-11-19T13:56:40;17.87;;;4.23;;
18505;SDS011;9382;53.242;10.438;2023-11-19T13:59:13;21.80;;;4.83;;
18505;SDS011;9382;53.242;10.438;2023-11-19T14:02:02;18.73;;;4.03;;
18505;SDS011;9382;53.242;10.438;2023-11-19T14:04:35;19.03;;;5.40;;
18505;SDS011;9382;53.242;10.438;2023-11-19T14:07:08;19.93;;;4.30;;
18505;SDS011;9382;53.242;10.438;2023-11-19T14:09:35;16.67;;;4.77;;
18505;SDS011;9382;53.242;10.438;2023-11-19T14:12:05;20.40;;;4.97;;
18505;SDS011;9382;53.242;10.438;2023-11-19T14:14:33;20.57;;;4.83;;
18505;SDS011;9382;53.242;10.438;2023-11-19T14:17:01;16.67;;;4.47;;
18505;SDS011;9382;53.242;10.438;2023-11-19T14:19:28;20.20;;;4.57;;
18505;SDS011;9382;53.242;10.438;2023-11-19T14:22:07;18.57;;;4.97;;
18505;SDS011;9382;53.242;10.438;2023-11-19T14:24:36;24.97;;;5.20;;
18505;SDS011;9382;53.242;10.438;2023-11-19T14:27:04;15.03;;;4.37;;
18505;SDS011;9382;53.242;10.438;2023-11-19T14:29:34;14.53;;;4.77;;
18505;SDS011;9382;53.242;10.438;2023-11-19T14:32:03;17.67;;;4.70;;
18505;SDS011;9382;53.242;10.438;2023-11-19T14:34:33;16.93;;;4.37;;
18505;SDS011;9382;53.242;10.438;2023-11-19T14:37:00;23.23;;;5.00;;
18505;SDS011;9382;53.242;10.438;2023-11-19T14:39:30;18.23;;;4.03;;
18505;SDS011;9382;53.242;10.438;2023-11-19T14:41:59;13.67;;;4.03;;
18505;SDS011;9382;53.242;10.438;2023-11-19T14:44:38;14.23;;;3.77;;
18505;SDS011;9382;53.242;10.438;2023-11-19T14:47:18;14.63;;;3.97;;
18505;SDS011;9382;53.242;10.438;2023-11-19T14:49:48;13.87;;;3.50;;
18505;SDS011;9382;53.242;10.438;2023-11-19T14:52:18;13.23;;;3.07;;
18505;SDS011;9382;53.242;10.438;2023-11-19T14:54:48;12.13;;;3.03;;
18505;SDS011;9382;53.242;10.438;2023-11-19T14:57:16;14.10;;;3.07;;
18505;SDS011;9382;53.242;10.438;2023-11-19T14:59:43;11.53;;;3.00;;
18505;SDS011;9382;53.242;10.438;2023-11-19T15:02:11;16.47;;;3.53;;
18505;SDS011;9382;53.242;10.438;2023-11-19T15:04:40;13.90;;;3.20;;
18505;SDS011;9382;53.242;10.438;2023-11-19T15:07:11;8.67;;;2.70;;